Time,TemperatureF,DewpointF,PressureIn,WindDirection,WindDirectionDegrees,WindSpeedMPH,WindSpeedGustMPH,Humidity,HourlyPrecipIn,Conditions,Clouds,dailyrainin,SoftwareType,DateUTC
2013-02-22 00:00:00,24.6,14.6,30.21,North,353,9.7,11.6,65,0.00,,---,0.00,VWS V14.01,2013-02-22 05:00:00,
2013-02-22 00:01:00,35.9,33.5,30.20,ESE,115,0.0,0.0,91,0.00,,---,0.00,VWS V14.01,2013-02-22 05:01:00,
2013-02-22 00:02:00,35.8,33.3,30.20,ESE,115,0.0,0.0,91,0.00,,---,0.00,VWS V14.01,2013-02-22 05:02:00,
2013-02-22 00:04:00,23.8,15.5,30.24,North,359,0.0,12.7,70,0.00,,---,0.00,VWS V14.01,2013-02-22 05:04:00,
2013-02-22 00:05:00,24.4,14.5,30.21,North,359,0.0,1.2,66,0.00,,---,0.00,VWS V14.01,2013-02-22 05:05:00,
2013-02-22 00:10:00,24.2,14.3,30.21,North,359,0.3,9.6,65,0.00,,---,0.00,VWS V14.01,2013-02-22 05:10:00,
2013-02-22 00:15:00,24.3,14.6,30.20,ENE,70,0.2,9.8,66,0.00,,---,0.00,VWS V14.01,2013-02-22 05:15:00,
2013-02-22 00:16:00,24.0,14.6,30.20,North,359,8.1,12.7,67,0.00,,---,0.00,VWS V14.01,2013-02-22 05:16:00,
2013-02-22 00:20:00,24.0,14.3,30.20,North,359,2.0,12.7,66,0.00,,---,0.00,VWS V14.01,2013-02-22 05:20:00,
2013-02-22 00:25:00,24.4,14.8,30.20,North,359,5.2,12.7,66,0.00,,---,0.00,VWS V14.01,2013-02-22 05:25:00,
2013-02-22 00:30:00,24.2,14.7,30.21,NE,38,7.5,12.7,67,0.00,,---,0.00,VWS V14.01,2013-02-22 05:30:00,
2013-02-22 00:35:00,24.3,15.0,30.22,North,350,6.0,12.7,67,0.00,,---,0.00,VWS V14.01,2013-02-22 05:35:00,
2013-02-22 00:40:00,23.9,14.5,30.22,North,359,6.6,12.7,67,0.00,,---,0.00,VWS V14.01,2013-02-22 05:40:00,
2013-02-22 00:45:00,23.9,14.7,30.22,North,359,0.3,12.7,67,0.00,,---,0.00,VWS V14.01,2013-02-22 05:45:00,
2013-02-22 00:48:00,24.4,15.3,30.22,North,359,0.3,12.7,68,0.00,,---,0.00,VWS V14.01,2013-02-22 05:48:00,
2013-02-22 00:50:00,24.1,14.9,30.22,North,359,0.4,12.7,68,0.00,,---,0.00,VWS V14.01,2013-02-22 05:50:00,
2013-02-22 00:55:00,23.9,14.8,30.22,North,359,0.0,12.7,68,0.00,,---,0.00,VWS V14.01,2013-02-22 05:55:00,
2013-02-22 01:00:00,23.6,14.5,30.22,North,359,0.9,12.7,68,0.00,,---,0.00,VWS V14.01,2013-02-22 06:00:00,
2013-02-22 01:05:00,23.6,14.6,30.22,North,357,9.5,12.7,68,0.00,,---,0.00,VWS V14.01,2013-02-22 06:05:00,
2013-02-22 01:10:00,23.5,14.6,30.21,North,359,0.0,12.7,68,0.00,,---,0.00,VWS V14.01,2013-02-22 06:10:00,
2013-02-22 01:15:00,23.4,14.7,30.21,NE,34,0.0,12.7,69,0.00,,---,0.00,VWS V14.01,2013-02-22 06:15:00,
2013-02-22 01:20:00,23.4,14.7,30.22,NE,48,8.1,12.7,69,0.00,,---,0.00,VWS V14.01,2013-02-22 06:20:00,
2013-02-22 01:25:00,24.0,15.3,30.21,North,359,0.0,12.7,69,0.00,,---,0.00,VWS V14.01,2013-02-22 06:25:00,
2013-02-22 01:30:00,23.6,14.9,30.21,NE,37,7.5,12.7,69,0.00,,---,0.00,VWS V14.01,2013-02-22 06:30:00,
2013-02-22 01:35:00,23.7,15.1,30.21,NE,48,0.0,12.7,69,0.00,,---,0.00,VWS V14.01,2013-02-22 06:35:00,
2013-02-22 01:40:00,23.3,14.7,30.22,NE,48,0.0,12.7,69,0.00,,---,0.00,VWS V14.01,2013-02-22 06:40:00,
2013-02-22 01:45:00,23.6,14.9,30.23,NNW,339,0.0,12.7,69,0.00,,---,0.00,VWS V14.01,2013-02-22 06:45:00,
2013-02-22 01:50:00,23.6,15.0,30.23,North,359,0.0,12.7,69,0.00,,---,0.00,VWS V14.01,2013-02-22 06:50:00,
2013-02-22 01:55:00,23.2,14.8,30.23,NNW,329,6.5,12.7,70,0.00,,---,0.00,VWS V14.01,2013-02-22 06:55:00,
2013-02-22 02:00:00,23.4,15.0,30.24,North,359,1.6,12.7,70,0.00,,---,0.00,VWS V14.01,2013-02-22 07:00:00,
2013-02-22 02:05:00,23.7,15.2,30.24,North,11,0.0,12.7,70,0.00,,---,0.00,VWS V14.01,2013-02-22 07:05:00,
2013-02-22 02:10:00,23.2,14.9,30.24,North,359,6.5,12.7,70,0.00,,---,0.00,VWS V14.01,2013-02-22 07:10:00,
2013-02-22 02:15:00,23.8,15.6,30.24,North,359,0.0,12.7,70,0.00,,---,0.00,VWS V14.01,2013-02-22 07:15:00,
2013-02-22 02:20:00,23.1,15.0,30.24,North,359,7.0,12.7,71,0.00,,---,0.00,VWS V14.01,2013-02-22 07:20:00,
2013-02-22 02:25:00,23.1,15.1,30.23,ENE,62,8.9,12.7,71,0.00,,---,0.00,VWS V14.01,2013-02-22 07:25:00,
2013-02-22 02:30:00,23.0,15.2,30.24,North,359,6.9,12.7,72,0.00,,---,0.00,VWS V14.01,2013-02-22 07:30:00,
2013-02-22 02:35:00,23.2,15.3,30.24,North,359,0.0,12.7,71,0.00,,---,0.00,VWS V14.01,2013-02-22 07:35:00,
2013-02-22 02:40:00,23.2,15.2,30.25,North,359,0.0,12.7,71,0.00,,---,0.00,VWS V14.01,2013-02-22 07:40:00,
2013-02-22 02:45:00,23.5,15.5,30.25,North,359,0.0,12.7,71,0.00,,---,0.00,VWS V14.01,2013-02-22 07:45:00,
2013-02-22 02:50:00,23.3,15.3,30.24,North,359,0.2,12.7,71,0.00,,---,0.00,VWS V14.01,2013-02-22 07:50:00,
2013-02-22 02:55:00,23.2,15.3,30.24,North,359,0.0,12.7,71,0.00,,---,0.00,VWS V14.01,2013-02-22 07:55:00,
2013-02-22 03:00:00,23.5,15.5,30.24,North,359,0.0,0.3,71,0.00,,---,0.00,VWS V14.01,2013-02-22 08:00:00,
2013-02-22 03:05:00,23.5,15.7,30.25,North,359,0.0,0.0,72,0.00,,---,0.00,VWS V14.01,2013-02-22 08:05:00,
2013-02-22 03:10:00,23.5,15.7,30.24,NE,45,0.0,1.2,72,0.00,,---,0.00,VWS V14.01,2013-02-22 08:10:00,
2013-02-22 03:15:00,23.1,15.3,30.24,North,359,0.4,8.4,72,0.00,,---,0.00,VWS V14.01,2013-02-22 08:15:00,
2013-02-22 03:20:00,23.0,15.3,30.25,NNW,330,0.0,0.0,72,0.00,,---,0.00,VWS V14.01,2013-02-22 08:20:00,
2013-02-22 03:25:00,23.4,15.8,30.24,North,359,0.0,0.0,72,0.00,,---,0.00,VWS V14.01,2013-02-22 08:25:00,
2013-02-22 03:30:00,24.1,16.4,30.25,North,359,0.0,7.8,72,0.00,,---,0.00,VWS V14.01,2013-02-22 08:30:00,
2013-02-22 03:34:00,23.7,16.0,30.26,NNW,336,0.0,0.0,72,0.00,,---,0.00,VWS V14.01,2013-02-22 08:34:00,
2013-02-22 03:39:00,24.2,16.5,30.25,North,359,0.0,0.2,72,0.00,,---,0.00,VWS V14.01,2013-02-22 08:39:00,
2013-02-22 03:44:00,23.8,16.2,30.25,North,359,0.0,0.0,72,66.86,,---,0.00,VWS V14.01,2013-02-22 08:44:00,
2013-02-22 03:49:00,23.7,16.2,30.25,North,359,0.0,8.8,72,0.00,,---,0.00,VWS V14.01,2013-02-22 08:49:00,
2013-02-22 03:54:00,24.1,16.5,30.25,North,359,9.8,9.8,72,0.00,,---,0.00,VWS V14.01,2013-02-22 08:54:00,
2013-02-22 03:59:00,23.9,16.5,30.25,North,359,4.1,4.1,73,0.00,,---,0.00,VWS V14.01,2013-02-22 08:59:00,
2013-02-22 04:00:00,23.7,16.4,30.26,North,359,0.0,0.0,73,0.00,,---,0.00,VWS V14.01,2013-02-22 09:00:00,
2013-02-22 04:04:00,23.1,15.7,30.25,North,359,0.0,0.0,73,0.00,,---,0.00,VWS V14.01,2013-02-22 09:04:00,
2013-02-22 04:09:00,23.5,16.2,30.25,North,359,0.0,5.5,73,0.00,,---,0.00,VWS V14.01,2013-02-22 09:09:00,
2013-02-22 04:14:00,23.8,16.5,30.26,North,359,0.0,9.8,73,0.00,,---,0.00,VWS V14.01,2013-02-22 09:14:00,
2013-02-22 04:19:00,23.8,16.6,30.26,North,359,0.0,0.0,74,0.00,,---,0.00,VWS V14.01,2013-02-22 09:19:00,
2013-02-22 04:24:00,24.2,16.9,30.27,North,359,0.0,0.0,73,0.00,,---,0.00,VWS V14.01,2013-02-22 09:24:00,
2013-02-22 04:29:00,23.9,16.7,30.26,North,359,0.0,7.8,74,0.00,,---,0.00,VWS V14.01,2013-02-22 09:29:00,
2013-02-22 04:34:00,23.7,16.6,30.27,North,359,0.0,0.0,74,0.00,,---,0.00,VWS V14.01,2013-02-22 09:34:00,
2013-02-22 04:39:00,24.0,16.9,30.27,NNE,20,0.0,6.2,74,24.14,,---,0.00,VWS V14.01,2013-02-22 09:39:00,
2013-02-22 04:44:00,23.3,16.4,30.26,NNE,20,0.0,0.0,74,0.00,,---,0.00,VWS V14.01,2013-02-22 09:44:00,
2013-02-22 04:49:00,23.3,16.4,30.26,North,359,0.0,0.0,74,0.00,,---,0.00,VWS V14.01,2013-02-22 09:49:00,
2013-02-22 04:54:00,23.4,16.5,30.27,North,359,0.0,0.0,74,0.00,,---,0.00,VWS V14.01,2013-02-22 09:54:00,
2013-02-22 04:59:00,23.2,16.2,30.26,SSE,152,0.0,7.0,74,0.00,,---,0.00,VWS V14.01,2013-02-22 09:59:00,
2013-02-22 05:04:00,23.8,17.1,30.26,SSE,152,0.0,0.0,75,24.14,,---,0.00,VWS V14.01,2013-02-22 10:04:00,
2013-02-22 05:09:00,23.8,16.9,30.27,SSE,152,0.0,0.0,74,0.00,,---,0.00,VWS V14.01,2013-02-22 10:09:00,
2013-02-22 05:14:00,23.7,16.7,30.27,SSE,152,0.0,0.0,74,0.00,,---,0.00,VWS V14.01,2013-02-22 10:14:00,
2013-02-22 05:19:00,24.0,17.0,30.27,SSE,152,0.0,0.0,74,0.00,,---,0.00,VWS V14.01,2013-02-22 10:19:00,
2013-02-22 05:24:00,24.1,17.2,30.27,SSE,152,0.0,0.0,74,0.00,,---,0.00,VWS V14.01,2013-02-22 10:24:00,
2013-02-22 05:29:00,24.0,17.0,30.27,SSE,152,0.0,0.0,74,0.00,,---,0.00,VWS V14.01,2013-02-22 10:29:00,
2013-02-22 05:34:00,24.1,17.4,30.28,SSE,152,0.0,0.0,75,0.00,,---,0.00,VWS V14.01,2013-02-22 10:34:00,
2013-02-22 05:39:00,23.7,16.9,30.29,SSE,152,0.0,0.0,75,0.00,,---,0.00,VWS V14.01,2013-02-22 10:39:00,
2013-02-22 05:44:00,23.5,16.7,30.30,SSE,152,0.0,0.0,75,0.00,,---,0.00,VWS V14.01,2013-02-22 10:44:00,
2013-02-22 05:49:00,24.1,17.2,30.30,SSE,152,0.0,0.0,75,0.00,,---,0.00,VWS V14.01,2013-02-22 10:49:00,
2013-02-22 05:54:00,23.8,16.9,30.30,SSE,152,0.0,0.0,74,0.00,,---,0.00,VWS V14.01,2013-02-22 10:54:00,
2013-02-22 05:59:00,23.3,16.6,30.30,SSE,152,0.0,0.0,75,0.00,,---,0.00,VWS V14.01,2013-02-22 10:59:00,
2013-02-22 06:01:00,37.3,33.5,30.21,SE,141,0.0,0.0,86,0.00,,---,0.00,VWS V14.01,2013-02-22 11:01:00,
2013-02-22 06:04:00,23.3,16.6,30.31,North,359,0.0,0.0,75,0.00,,---,0.00,VWS V14.01,2013-02-22 11:04:00,
2013-02-22 06:09:00,23.8,17.1,30.31,ENE,76,0.0,0.0,75,0.00,,---,0.00,VWS V14.01,2013-02-22 11:09:00,
2013-02-22 06:14:00,23.2,16.6,30.31,NNW,330,3.9,4.7,76,0.00,,---,0.00,VWS V14.01,2013-02-22 11:14:00,
2013-02-22 06:19:00,23.1,16.6,30.31,North,359,3.9,3.9,76,0.00,,---,0.00,VWS V14.01,2013-02-22 11:19:00,
2013-02-22 06:24:00,22.5,16.1,30.31,North,359,3.7,3.7,76,0.00,,---,0.00,VWS V14.01,2013-02-22 11:24:00,
2013-02-22 06:29:00,22.9,16.6,30.32,North,359,0.0,0.0,76,0.00,,---,0.00,VWS V14.01,2013-02-22 11:29:00,
2013-02-22 06:34:00,22.8,16.5,30.32,North,359,0.0,0.0,76,0.00,,---,0.00,VWS V14.01,2013-02-22 11:34:00,
2013-02-22 06:39:00,22.7,16.5,30.32,North,359,6.5,6.5,77,0.00,,---,0.00,VWS V14.01,2013-02-22 11:39:00,
2013-02-22 06:44:00,22.8,16.5,30.32,North,359,0.0,0.0,76,0.00,,---,0.00,VWS V14.01,2013-02-22 11:44:00,
2013-02-22 06:49:00,22.8,16.6,30.32,North,359,0.0,5.0,77,0.00,,---,0.00,VWS V14.01,2013-02-22 11:49:00,
2013-02-22 06:54:00,22.8,16.6,30.31,North,359,3.7,6.3,77,0.00,,---,0.00,VWS V14.01,2013-02-22 11:54:00,
2013-02-22 06:59:00,22.6,16.6,30.31,North,359,0.0,0.0,78,0.00,,---,0.00,VWS V14.01,2013-02-22 11:59:00,
2013-02-22 07:04:00,22.8,17.0,30.31,North,359,0.0,0.0,78,0.00,,---,0.00,VWS V14.01,2013-02-22 12:04:00,
2013-02-22 07:09:00,22.9,17.0,30.31,North,359,7.1,7.1,78,0.00,,---,0.00,VWS V14.01,2013-02-22 12:09:00,
2013-02-22 07:14:00,22.9,17.1,30.32,North,359,0.0,8.0,78,0.00,,---,0.00,VWS V14.01,2013-02-22 12:14:00,
2013-02-22 07:19:00,23.2,17.5,30.32,North,359,0.0,0.0,78,0.00,,---,0.00,VWS V14.01,2013-02-22 12:19:00,
2013-02-22 07:24:00,22.7,16.9,30.32,North,359,0.0,9.4,78,0.00,,---,0.00,VWS V14.01,2013-02-22 12:24:00,
2013-02-22 07:29:00,23.1,17.2,30.32,North,359,0.0,6.0,78,0.00,,---,0.00,VWS V14.01,2013-02-22 12:29:00,
2013-02-22 07:34:00,23.2,17.4,30.32,ENE,68,2.7,2.7,78,0.00,,---,0.00,VWS V14.01,2013-02-22 12:34:00,
2013-02-22 07:39:00,23.3,17.6,30.32,North,352,0.0,2.7,78,0.00,,---,0.00,VWS V14.01,2013-02-22 12:39:00,
2013-02-22 07:44:00,23.9,18.1,30.33,SE,132,2.4,4.8,78,0.00,,---,0.00,VWS V14.01,2013-02-22 12:44:00,
2013-02-22 07:49:00,23.5,17.7,30.33,North,359,0.0,7.0,78,0.00,,---,0.00,VWS V14.01,2013-02-22 12:49:00,
2013-02-22 07:54:00,23.5,17.6,30.34,NNE,20,1.4,3.1,78,0.00,,---,0.00,VWS V14.01,2013-02-22 12:54:00,
2013-02-22 07:59:00,23.9,17.9,30.33,SW,217,2.4,3.5,78,38.35,,---,0.00,VWS V14.01,2013-02-22 12:59:00,
2013-02-22 08:04:00,24.1,18.1,30.34,North,8,4.0,4.5,78,0.00,,---,0.00,VWS V14.01,2013-02-22 13:04:00,
2013-02-22 08:09:00,24.9,18.9,30.33,NNE,31,4.0,5.2,78,0.00,,---,0.00,VWS V14.01,2013-02-22 13:09:00,
2013-02-22 08:14:00,24.5,18.4,30.33,NNE,13,4.7,5.0,77,0.00,,---,0.00,VWS V14.01,2013-02-22 13:14:00,
2013-02-22 08:19:00,24.8,18.8,30.33,NE,35,4.0,4.0,78,0.00,,---,0.00,VWS V14.01,2013-02-22 13:19:00,
2013-02-22 08:24:00,24.9,18.8,30.33,North,7,3.2,3.2,77,0.00,,---,0.00,VWS V14.01,2013-02-22 13:24:00,
2013-02-22 08:29:00,24.4,18.4,30.32,North,8,4.0,5.5,78,0.00,,---,0.00,VWS V14.01,2013-02-22 13:29:00,
2013-02-22 08:34:00,25.8,19.6,30.33,North,349,2.8,5.1,77,0.00,,---,0.00,VWS V14.01,2013-02-22 13:34:00,
2013-02-22 08:39:00,26.7,20.6,30.33,NNE,20,2.9,3.4,78,0.00,,---,0.00,VWS V14.01,2013-02-22 13:39:00,
2013-02-22 08:44:00,26.4,20.1,30.33,NE,34,3.6,3.9,77,0.00,,---,0.00,VWS V14.01,2013-02-22 13:44:00,
2013-02-22 08:49:00,26.6,20.3,30.33,NE,37,3.7,4.9,77,0.00,,---,0.00,VWS V14.01,2013-02-22 13:49:00,
2013-02-22 08:54:00,27.4,20.9,30.33,North,6,5.3,5.4,76,0.00,,---,0.00,VWS V14.01,2013-02-22 13:54:00,
2013-02-22 08:59:00,27.7,21.3,30.33,NNE,25,3.5,3.5,76,38.35,,---,0.00,VWS V14.01,2013-02-22 13:59:00,
2013-02-22 09:04:00,27.9,21.0,30.33,NE,35,6.4,6.6,75,0.00,,---,0.00,VWS V14.01,2013-02-22 14:04:00,
2013-02-22 09:09:00,28.5,21.1,30.33,North,1,6.0,6.2,74,0.00,,---,0.00,VWS V14.01,2013-02-22 14:09:00,
2013-02-22 09:14:00,28.8,21.1,30.33,North,11,6.2,7.6,72,0.00,,---,0.00,VWS V14.01,2013-02-22 14:14:00,
2013-02-22 09:19:00,28.8,21.0,30.33,North,6,4.2,5.7,72,0.00,,---,0.00,VWS V14.01,2013-02-22 14:19:00,
2013-02-22 09:24:00,29.3,21.1,30.33,East,87,3.8,5.5,71,0.00,,---,0.00,VWS V14.01,2013-02-22 14:24:00,
2013-02-22 09:29:00,29.3,20.8,30.33,NE,39,6.5,8.4,70,0.00,,---,0.00,VWS V14.01,2013-02-22 14:29:00,
2013-02-22 09:34:00,29.7,21.4,30.32,North,11,4.3,6.5,71,0.00,,---,0.00,VWS V14.01,2013-02-22 14:34:00,
2013-02-22 09:39:00,30.1,21.5,30.32,NNE,13,1.9,2.5,70,0.00,,---,0.00,VWS V14.01,2013-02-22 14:39:00,
2013-02-22 09:44:00,31.0,21.6,30.32,NE,51,5.7,7.6,68,0.00,,---,0.00,VWS V14.01,2013-02-22 14:44:00,
2013-02-22 09:49:00,30.9,21.5,30.32,NNE,24,3.2,7.1,68,0.00,,---,0.00,VWS V14.01,2013-02-22 14:49:00,
2013-02-22 09:54:00,30.8,21.2,30.32,NNE,25,8.0,9.6,67,0.00,,---,0.00,VWS V14.01,2013-02-22 14:54:00,
2013-02-22 09:58:00,30.8,21.0,30.32,ESE,103,4.2,8.0,67,38.31,,---,0.00,VWS V14.01,2013-02-22 14:58:00,
2013-02-22 10:04:00,30.7,21.0,30.32,NNE,13,5.0,5.7,67,0.00,,---,0.00,VWS V14.01,2013-02-22 15:04:00,
2013-02-22 10:09:00,31.4,21.5,30.32,NNE,30,7.1,7.1,66,0.00,,---,0.00,VWS V14.01,2013-02-22 15:09:00,
2013-02-22 10:14:00,31.7,22.0,30.32,NE,52,6.5,7.6,67,0.00,,---,0.00,VWS V14.01,2013-02-22 15:14:00,
2013-02-22 10:19:00,31.4,21.5,30.31,East,100,8.4,8.4,66,0.00,,---,0.00,VWS V14.01,2013-02-22 15:19:00,
2013-02-22 10:24:00,31.8,21.6,30.31,NE,41,5.7,7.1,66,0.00,,---,0.00,VWS V14.01,2013-02-22 15:24:00,
2013-02-22 10:29:00,31.5,21.5,30.31,East,90,7.0,9.1,66,0.00,,---,0.00,VWS V14.01,2013-02-22 15:29:00,
2013-02-22 10:34:00,32.2,22.1,30.31,North,7,3.2,5.5,66,0.00,,---,0.00,VWS V14.01,2013-02-22 15:34:00,
2013-02-22 10:39:00,32.5,22.5,30.30,SE,125,6.4,8.6,66,0.00,,---,0.00,VWS V14.01,2013-02-22 15:39:00,
2013-02-22 10:44:00,32.2,22.0,30.30,East,91,8.8,8.8,66,0.00,,---,0.00,VWS V14.01,2013-02-22 15:44:00,
2013-02-22 10:49:00,32.3,21.9,30.31,ENE,75,6.2,8.8,65,0.00,,---,0.00,VWS V14.01,2013-02-22 15:49:00,
2013-02-22 10:54:00,32.4,21.8,30.31,SE,129,2.4,6.0,65,0.00,,---,0.00,VWS V14.01,2013-02-22 15:54:00,
2013-02-22 10:59:00,33.3,22.8,30.31,East,83,5.3,8.9,65,0.09,,---,0.00,VWS V14.01,2013-02-22 15:59:00,
2013-02-22 11:04:00,33.4,22.8,30.30,NE,48,11.5,11.5,65,0.00,,---,0.00,VWS V14.01,2013-02-22 16:04:00,
2013-02-22 11:09:00,33.8,23.0,30.31,ESE,115,5.5,5.5,64,0.00,,---,0.00,VWS V14.01,2013-02-22 16:09:00,
2013-02-22 11:14:00,34.3,23.4,30.31,ESE,117,5.5,8.0,64,0.00,,---,0.00,VWS V14.01,2013-02-22 16:14:00,
2013-02-22 11:19:00,33.8,23.1,30.31,SSE,163,1.4,4.2,65,0.00,,---,0.00,VWS V14.01,2013-02-22 16:19:00,
2013-02-22 11:24:00,33.9,23.5,30.31,ESE,114,2.1,5.3,65,0.00,,---,0.00,VWS V14.01,2013-02-22 16:24:00,
2013-02-22 11:29:00,33.5,23.2,30.31,ENE,63,5.1,5.6,66,0.00,,---,0.00,VWS V14.01,2013-02-22 16:29:00,
2013-02-22 11:34:00,34.0,23.6,30.30,NE,35,4.0,5.7,65,0.00,,---,0.00,VWS V14.01,2013-02-22 16:34:00,
2013-02-22 11:39:00,33.8,23.4,30.30,East,91,5.7,6.2,65,0.00,,---,0.00,VWS V14.01,2013-02-22 16:39:00,
2013-02-22 11:44:00,33.6,23.6,30.30,ENE,58,4.0,8.7,66,0.00,,---,0.00,VWS V14.01,2013-02-22 16:44:00,
2013-02-22 11:49:00,34.2,23.9,30.30,NE,41,6.5,6.6,66,0.00,,---,0.00,VWS V14.01,2013-02-22 16:49:00,
2013-02-22 11:54:00,33.6,23.6,30.30,NE,53,2.5,5.1,66,0.00,,---,0.00,VWS V14.01,2013-02-22 16:54:00,
2013-02-22 11:59:00,33.7,23.6,30.30,NE,39,5.5,7.1,66,38.01,,---,0.00,VWS V14.01,2013-02-22 16:59:00,
2013-02-22 12:04:00,33.4,23.2,30.30,NE,35,5.2,7.1,66,0.00,,---,0.00,VWS V14.01,2013-02-22 17:04:00,
2013-02-22 12:09:00,34.0,23.8,30.30,East,80,3.0,3.9,66,0.00,,---,0.00,VWS V14.01,2013-02-22 17:09:00,
2013-02-22 12:14:00,34.9,24.6,30.30,SE,136,3.0,3.3,66,0.00,,---,0.00,VWS V14.01,2013-02-22 17:14:00,
2013-02-22 12:19:00,34.8,24.3,30.30,ENE,75,5.4,8.8,65,0.00,,---,0.00,VWS V14.01,2013-02-22 17:19:00,
2013-02-22 12:24:00,34.6,24.1,30.30,NE,52,1.0,3.2,65,0.00,,---,0.00,VWS V14.01,2013-02-22 17:24:00,
2013-02-22 12:29:00,34.7,24.3,30.29,SSE,159,4.3,7.0,65,0.00,,---,0.00,VWS V14.01,2013-02-22 17:29:00,
2013-02-22 12:33:00,35.0,24.7,30.29,ESE,103,2.1,3.6,66,0.00,,---,0.00,VWS V14.01,2013-02-22 17:33:00,
2013-02-22 12:38:00,34.4,24.0,30.28,East,101,4.5,6.2,65,0.00,,---,0.00,VWS V14.01,2013-02-22 17:38:00,
2013-02-22 12:43:00,34.4,24.2,30.28,ESE,104,9.6,9.6,66,0.00,,---,0.00,VWS V14.01,2013-02-22 17:43:00,
2013-02-22 12:48:00,35.0,24.8,30.29,East,93,4.5,5.7,66,0.00,,---,0.00,VWS V14.01,2013-02-22 17:48:00,
2013-02-22 12:53:00,34.5,24.4,30.28,SE,142,3.5,4.7,66,0.00,,---,0.00,VWS V14.01,2013-02-22 17:53:00,
2013-02-22 12:58:00,34.4,24.3,30.28,ESE,112,5.9,6.4,66,38.06,,---,0.00,VWS V14.01,2013-02-22 17:58:00,
2013-02-22 13:03:00,34.3,24.4,30.28,SSW,197,1.9,2.3,67,0.00,,---,0.00,VWS V14.01,2013-02-22 18:03:00,
2013-02-22 13:08:00,34.3,24.4,30.28,ESE,110,5.4,10.1,67,0.00,,---,0.00,VWS V14.01,2013-02-22 18:08:00,
2013-02-22 13:13:00,34.8,24.8,30.27,NE,55,5.5,5.5,66,0.00,,---,0.00,VWS V14.01,2013-02-22 18:13:00,
2013-02-22 13:18:00,35.2,25.0,30.26,ESE,117,5.7,7.1,66,0.00,,---,0.00,VWS V14.01,2013-02-22 18:18:00,
2013-02-22 13:23:00,34.7,24.8,30.26,SE,129,4.7,8.7,67,0.00,,---,0.00,VWS V14.01,2013-02-22 18:23:00,
2013-02-22 13:28:00,34.8,25.2,30.26,SE,136,1.8,6.6,68,0.00,,---,0.00,VWS V14.01,2013-02-22 18:28:00,
2013-02-22 13:33:00,35.2,25.5,30.26,SSE,166,5.3,5.9,68,0.00,,---,0.00,VWS V14.01,2013-02-22 18:33:00,
2013-02-22 13:38:00,35.1,25.5,30.26,ESE,122,2.4,4.8,68,0.00,,---,0.00,VWS V14.01,2013-02-22 18:38:00,
2013-02-22 13:43:00,35.0,25.4,30.26,South,172,4.7,4.9,68,0.00,,---,0.00,VWS V14.01,2013-02-22 18:43:00,
2013-02-22 13:48:00,35.4,25.7,30.26,SSE,159,7.8,9.6,68,0.00,,---,0.00,VWS V14.01,2013-02-22 18:48:00,
2013-02-22 13:53:00,35.1,25.8,30.26,SSE,163,9.2,9.2,68,0.00,,---,0.00,VWS V14.01,2013-02-22 18:53:00,
2013-02-22 13:58:00,34.9,25.7,30.26,ESE,122,2.3,6.0,69,0.00,,---,0.00,VWS V14.01,2013-02-22 18:58:00,
2013-02-22 14:03:00,35.1,25.6,30.26,SE,139,5.5,7.4,68,0.00,,---,0.00,VWS V14.01,2013-02-22 19:03:00,
2013-02-22 14:08:00,35.4,26.1,30.26,East,101,2.4,4.0,69,0.00,,---,0.00,VWS V14.01,2013-02-22 19:08:00,
2013-02-22 14:13:00,35.5,26.3,30.26,East,93,4.8,6.8,69,0.00,,---,0.00,VWS V14.01,2013-02-22 19:13:00,
2013-02-22 14:18:00,35.1,26.0,30.25,East,100,3.7,4.2,69,0.00,,---,0.00,VWS V14.01,2013-02-22 19:18:00,
2013-02-22 14:23:00,34.9,26.0,30.25,SSE,159,4.4,7.8,70,0.00,,---,0.00,VWS V14.01,2013-02-22 19:23:00,
2013-02-22 14:28:00,35.1,26.3,30.25,SE,138,1.7,4.4,70,0.00,,---,0.00,VWS V14.01,2013-02-22 19:28:00,
2013-02-22 14:33:00,35.0,26.4,30.25,SE,145,4.4,4.7,70,0.00,,---,0.00,VWS V14.01,2013-02-22 19:33:00,
2013-02-22 14:38:00,35.0,26.4,30.25,SSE,155,5.3,6.5,70,0.00,,---,0.00,VWS V14.01,2013-02-22 19:38:00,
2013-02-22 14:43:00,35.0,26.8,30.24,South,174,9.3,9.3,72,0.00,,---,0.00,VWS V14.01,2013-02-22 19:43:00,
2013-02-22 14:48:00,34.6,26.6,30.25,South,177,7.6,8.4,72,0.00,,---,0.00,VWS V14.01,2013-02-22 19:48:00,
2013-02-22 14:53:00,34.7,26.8,30.25,South,173,7.5,8.3,72,0.00,,---,0.00,VWS V14.01,2013-02-22 19:53:00,
2013-02-22 14:58:00,34.9,27.1,30.25,East,97,3.8,3.8,73,0.00,,---,0.00,VWS V14.01,2013-02-22 19:58:00,
2013-02-22 15:03:00,34.9,27.1,30.25,SSE,153,5.8,5.8,73,0.00,,---,0.00,VWS V14.01,2013-02-22 20:03:00,
2013-02-22 15:08:00,34.9,27.1,30.25,SE,124,1.5,4.6,73,0.00,,---,0.00,VWS V14.01,2013-02-22 20:08:00,
2013-02-22 15:13:00,34.8,27.1,30.25,East,96,4.7,5.4,73,0.00,,---,0.00,VWS V14.01,2013-02-22 20:13:00,
2013-02-22 15:18:00,34.9,27.2,30.25,ENE,65,2.6,4.5,73,0.00,,---,0.00,VWS V14.01,2013-02-22 20:18:00,
2013-02-22 15:23:00,34.9,27.4,30.25,East,96,6.0,6.2,74,0.00,,---,0.00,VWS V14.01,2013-02-22 20:23:00,
2013-02-22 15:28:00,34.8,27.4,30.25,SE,135,6.2,7.8,74,0.00,,---,0.00,VWS V14.01,2013-02-22 20:28:00,
2013-02-22 15:33:00,34.8,27.5,30.26,SE,131,5.2,7.9,74,0.00,,---,0.00,VWS V14.01,2013-02-22 20:33:00,
2013-02-22 15:38:00,34.4,27.1,30.26,South,179,8.3,9.3,74,0.00,,---,0.00,VWS V14.01,2013-02-22 20:38:00,
2013-02-22 15:43:00,34.4,27.3,30.26,SE,132,5.3,6.1,75,0.00,,---,0.00,VWS V14.01,2013-02-22 20:43:00,
2013-02-22 15:48:00,34.4,27.4,30.26,ESE,111,4.3,5.0,75,0.00,,---,0.00,VWS V14.01,2013-02-22 20:48:00,
2013-02-22 15:53:00,34.7,27.7,30.26,SE,141,4.5,4.9,75,0.00,,---,0.00,VWS V14.01,2013-02-22 20:53:00,
2013-02-22 15:58:00,34.4,27.5,30.26,SSE,149,0.8,0.9,76,0.00,,---,0.00,VWS V14.01,2013-02-22 20:58:00,
2013-02-22 16:03:00,34.9,27.9,30.26,South,169,3.0,3.0,75,0.00,,---,0.00,VWS V14.01,2013-02-22 21:03:00,
2013-02-22 16:08:00,34.8,27.9,30.26,SE,142,4.9,5.1,76,0.00,,---,0.00,VWS V14.01,2013-02-22 21:08:00,
2013-02-22 16:13:00,34.6,27.8,30.26,SSE,148,2.7,3.2,76,0.00,,---,0.00,VWS V14.01,2013-02-22 21:13:00,
2013-02-22 16:18:00,34.5,27.6,30.26,SE,145,2.9,3.9,76,0.00,,---,0.00,VWS V14.01,2013-02-22 21:18:00,
2013-02-22 16:23:00,35.2,28.3,30.26,ESE,112,2.0,5.9,76,0.00,,---,0.00,VWS V14.01,2013-02-22 21:23:00,
2013-02-22 16:28:00,35.3,28.6,30.26,ENE,76,1.7,2.9,76,0.00,,---,0.00,VWS V14.01,2013-02-22 21:28:00,
2013-02-22 16:33:00,34.9,28.2,30.26,SE,132,2.1,3.4,76,0.00,,---,0.00,VWS V14.01,2013-02-22 21:33:00,
2013-02-22 16:38:00,34.9,28.3,30.26,SSE,150,3.5,4.2,76,0.00,,---,0.00,VWS V14.01,2013-02-22 21:38:00,
2013-02-22 16:43:00,34.9,28.2,30.26,SSE,166,1.9,3.3,76,0.00,,---,0.00,VWS V14.01,2013-02-22 21:43:00,
2013-02-22 16:48:00,34.8,28.1,30.26,SE,145,1.7,2.4,76,0.00,,---,0.00,VWS V14.01,2013-02-22 21:48:00,
2013-02-22 16:53:00,35.0,28.4,30.26,NNE,18,0.4,1.4,76,0.00,,---,0.00,VWS V14.01,2013-02-22 21:53:00,
2013-02-22 16:58:00,35.0,28.5,30.26,East,98,1.7,2.9,77,0.00,,---,0.00,VWS V14.01,2013-02-22 21:58:00,
2013-02-22 17:03:00,35.2,28.8,30.26,SSE,152,3.4,4.2,77,0.00,,---,0.00,VWS V14.01,2013-02-22 22:03:00,
2013-02-22 17:08:00,35.0,28.7,30.26,SSE,156,2.9,4.7,78,0.00,,---,0.00,VWS V14.01,2013-02-22 22:08:00,
2013-02-22 17:13:00,35.4,29.2,30.26,ESE,108,3.2,3.2,78,38.22,,---,0.00,VWS V14.01,2013-02-22 22:13:00,
2013-02-22 17:18:00,34.8,28.6,30.26,ESE,105,2.7,3.3,78,0.00,,---,0.00,VWS V14.01,2013-02-22 22:18:00,
2013-02-22 17:23:00,34.6,28.3,30.26,SE,129,0.0,0.0,78,0.00,,---,0.00,VWS V14.01,2013-02-22 22:23:00,
2013-02-22 17:28:00,34.8,28.8,30.26,SE,128,2.2,3.2,78,0.00,,---,0.00,VWS V14.01,2013-02-22 22:28:00,
2013-02-22 17:33:00,34.8,28.9,30.26,ESE,103,4.3,4.5,79,0.00,,---,0.00,VWS V14.01,2013-02-22 22:33:00,
2013-02-22 17:38:00,35.0,29.2,30.26,SE,128,3.2,4.8,79,0.00,,---,0.00,VWS V14.01,2013-02-22 22:38:00,
2013-02-22 17:43:00,35.1,29.3,30.26,South,169,3.1,4.5,79,0.00,,---,0.00,VWS V14.01,2013-02-22 22:43:00,
2013-02-22 17:48:00,35.0,29.2,30.26,ESE,121,0.7,0.7,79,0.00,,---,0.00,VWS V14.01,2013-02-22 22:48:00,
2013-02-22 17:53:00,34.8,29.1,30.26,ESE,105,2.1,2.4,79,0.00,,---,0.00,VWS V14.01,2013-02-22 22:53:00,
2013-02-22 17:58:00,35.1,29.4,30.26,ESE,111,2.5,2.5,79,0.00,,---,0.00,VWS V14.01,2013-02-22 22:58:00,
2013-02-22 18:03:00,34.6,29.0,30.26,ENE,70,2.2,3.5,80,0.00,,---,0.00,VWS V14.01,2013-02-22 23:03:00,
2013-02-22 18:08:00,34.8,29.2,30.25,SE,129,1.6,2.5,80,0.00,,---,0.00,VWS V14.01,2013-02-22 23:08:00,
2013-02-22 18:13:00,34.5,28.9,30.26,SE,134,1.4,2.0,80,0.00,,---,0.00,VWS V14.01,2013-02-22 23:13:00,
2013-02-22 18:18:00,34.7,29.2,30.26,ESE,111,1.4,2.6,80,0.00,,---,0.00,VWS V14.01,2013-02-22 23:18:00,
2013-02-22 18:23:00,34.5,29.1,30.25,South,169,2.5,4.2,80,0.00,,---,0.00,VWS V14.01,2013-02-22 23:23:00,
2013-02-22 18:28:00,35.2,29.8,30.25,ESE,115,0.7,1.7,80,0.00,,---,0.00,VWS V14.01,2013-02-22 23:28:00,
2013-02-22 18:33:00,34.4,29.0,30.25,ESE,111,0.6,1.6,80,0.00,,---,0.00,VWS V14.01,2013-02-22 23:33:00,
2013-02-22 18:37:00,34.8,29.4,30.25,SSE,166,1.1,1.6,80,0.00,,---,0.00,VWS V14.01,2013-02-22 23:37:00,
2013-02-22 18:42:00,35.0,29.7,30.25,ESE,114,1.4,1.4,81,0.00,,---,0.00,VWS V14.01,2013-02-22 23:42:00,
2013-02-22 18:47:00,35.1,29.9,30.25,East,93,2.0,3.1,81,0.00,,---,0.00,VWS V14.01,2013-02-22 23:47:00,
2013-02-22 18:52:00,35.3,30.2,30.24,East,97,1.6,1.8,82,0.00,,---,0.00,VWS V14.01,2013-02-22 23:52:00,
2013-02-22 18:57:00,34.5,29.5,30.25,ESE,103,1.7,2.1,82,0.00,,---,0.00,VWS V14.01,2013-02-22 23:57:00,
2013-02-22 19:02:00,35.2,30.3,30.25,East,91,0.9,1.3,82,0.00,,---,0.00,VWS V14.01,2013-02-23 00:02:00,
2013-02-22 19:07:00,35.1,30.3,30.24,SE,125,1.1,1.8,82,0.00,,---,0.00,VWS V14.01,2013-02-23 00:07:00,
2013-02-22 19:12:00,35.2,30.4,30.25,NE,44,0.0,0.0,82,0.00,,---,0.00,VWS V14.01,2013-02-23 00:12:00,
2013-02-22 19:17:00,34.8,29.9,30.25,ESE,114,0.0,0.0,82,0.00,,---,0.00,VWS V14.01,2013-02-23 00:17:00,
2013-02-22 19:22:00,35.2,30.5,30.25,East,91,0.9,1.2,83,0.00,,---,0.00,VWS V14.01,2013-02-23 00:22:00,
2013-02-22 19:27:00,35.4,30.5,30.26,East,84,0.0,0.0,82,0.00,,---,0.00,VWS V14.01,2013-02-23 00:27:00,
2013-02-22 19:32:00,35.3,30.4,30.26,East,84,0.0,0.0,82,0.00,,---,0.00,VWS V14.01,2013-02-23 00:32:00,
2013-02-22 19:37:00,35.8,30.9,30.26,East,84,0.0,0.0,82,0.00,,---,0.00,VWS V14.01,2013-02-23 00:37:00,
2013-02-22 19:42:00,35.3,30.4,30.26,East,84,0.0,0.0,82,0.00,,---,0.00,VWS V14.01,2013-02-23 00:42:00,
2013-02-22 19:47:00,35.0,30.1,30.26,East,84,0.0,0.0,82,0.00,,---,0.00,VWS V14.01,2013-02-23 00:47:00,
2013-02-22 19:52:00,35.4,30.5,30.26,East,84,0.0,0.0,82,0.00,,---,0.00,VWS V14.01,2013-02-23 00:52:00,
2013-02-22 19:57:00,35.1,30.2,30.26,East,84,0.0,0.0,82,38.18,,---,0.00,VWS V14.01,2013-02-23 00:57:00,
2013-02-22 20:02:00,35.4,30.6,30.26,East,84,0.0,0.0,82,0.00,,---,0.00,VWS V14.01,2013-02-23 01:02:00,
2013-02-22 20:07:00,34.9,30.1,30.26,NE,41,0.0,0.4,83,0.00,,---,0.00,VWS V14.01,2013-02-23 01:07:00,
2013-02-22 20:12:00,35.3,30.5,30.26,NE,41,0.0,0.0,82,0.00,,---,0.00,VWS V14.01,2013-02-23 01:12:00,
2013-02-22 20:17:00,35.4,30.6,30.25,NE,41,0.0,0.0,82,0.00,,---,0.00,VWS V14.01,2013-02-23 01:17:00,
2013-02-22 20:22:00,35.5,30.8,30.25,NE,41,0.0,0.0,83,0.00,,---,0.00,VWS V14.01,2013-02-23 01:22:00,
2013-02-22 20:27:00,35.1,30.6,30.24,ENE,60,1.1,2.0,84,0.00,,---,0.00,VWS V14.01,2013-02-23 01:27:00,
2013-02-22 20:32:00,35.4,30.8,30.25,NNE,24,0.9,1.2,83,0.00,,---,0.00,VWS V14.01,2013-02-23 01:32:00,
2013-02-22 20:37:00,35.4,30.9,30.25,NNE,17,0.0,0.0,84,0.00,,---,0.00,VWS V14.01,2013-02-23 01:37:00,
2013-02-22 20:42:00,34.9,30.6,30.25,NNE,28,1.5,2.1,84,0.00,,---,0.00,VWS V14.01,2013-02-23 01:42:00,
2013-02-22 20:47:00,34.9,30.6,30.24,ESE,118,1.9,1.9,84,0.00,,---,0.00,VWS V14.01,2013-02-23 01:47:00,
2013-02-22 20:52:00,34.9,30.8,30.24,ESE,110,2.2,2.2,85,0.00,,---,0.00,VWS V14.01,2013-02-23 01:52:00,
2013-02-22 20:57:00,35.3,31.2,30.24,ESE,114,0.6,1.6,85,0.00,,---,0.00,VWS V14.01,2013-02-23 01:57:00,
2013-02-22 21:02:00,35.4,31.1,30.24,ENE,63,0.9,0.9,84,0.00,,---,0.00,VWS V14.01,2013-02-23 02:02:00,
2013-02-22 21:07:00,35.7,31.5,30.24,ENE,77,0.0,0.5,85,0.00,,---,0.00,VWS V14.01,2013-02-23 02:07:00,
2013-02-22 21:12:00,35.7,31.6,30.23,ENE,76,2.1,2.1,85,0.00,,---,0.00,VWS V14.01,2013-02-23 02:12:00,
2013-02-22 21:17:00,35.6,31.7,30.23,East,82,2.6,2.6,86,0.00,,---,0.00,VWS V14.01,2013-02-23 02:17:00,
2013-02-22 21:22:00,35.6,31.8,30.23,East,91,1.2,1.7,86,0.00,,---,0.00,VWS V14.01,2013-02-23 02:22:00,
2013-02-22 21:27:00,35.8,31.9,30.23,SE,142,0.0,0.0,86,0.00,,---,0.00,VWS V14.01,2013-02-23 02:27:00,
2013-02-22 21:32:00,35.8,32.1,30.23,SE,132,2.6,2.6,86,0.00,,---,0.00,VWS V14.01,2013-02-23 02:32:00,
2013-02-22 21:37:00,35.9,32.2,30.22,ESE,107,1.4,1.4,86,0.00,,---,0.00,VWS V14.01,2013-02-23 02:37:00,
2013-02-22 21:42:00,35.9,32.2,30.22,SE,135,2.4,2.4,86,0.00,,---,0.00,VWS V14.01,2013-02-23 02:42:00,
2013-02-22 21:47:00,36.1,32.5,30.22,SE,125,0.6,0.6,87,0.00,,---,0.00,VWS V14.01,2013-02-23 02:47:00,
2013-02-22 21:52:00,36.1,32.7,30.22,SE,131,1.0,1.0,87,0.00,,---,0.00,VWS V14.01,2013-02-23 02:52:00,
2013-02-22 21:57:00,36.6,33.1,30.22,East,83,0.2,0.8,87,45.29,,---,0.00,VWS V14.01,2013-02-23 02:57:00,
2013-02-22 22:02:00,36.1,32.6,30.22,SE,141,1.7,1.8,87,0.00,,---,0.00,VWS V14.01,2013-02-23 03:02:00,
2013-02-22 22:07:00,36.4,33.0,30.23,ESE,115,2.0,2.1,87,24.14,,---,0.00,VWS V14.01,2013-02-23 03:07:00,
2013-02-22 22:12:00,36.8,33.3,30.22,East,89,1.0,3.0,87,45.29,,---,0.00,VWS V14.01,2013-02-23 03:12:00,
2013-02-22 22:17:00,36.7,33.2,30.22,ESE,108,1.4,1.4,87,0.00,,---,0.00,VWS V14.01,2013-02-23 03:17:00,
2013-02-22 22:22:00,36.6,33.1,30.22,East,79,0.0,1.7,87,0.00,,---,0.00,VWS V14.01,2013-02-23 03:22:00,
2013-02-22 22:27:00,37.0,33.4,30.22,East,90,0.0,0.0,87,0.00,,---,0.00,VWS V14.01,2013-02-23 03:27:00,
2013-02-22 22:32:00,36.8,33.3,30.22,ENE,72,2.2,2.4,87,0.00,,---,0.00,VWS V14.01,2013-02-23 03:32:00,
2013-02-22 22:37:00,36.8,33.2,30.21,ESE,111,1.3,1.7,87,0.00,,---,0.00,VWS V14.01,2013-02-23 03:37:00,
2013-02-22 22:42:00,37.1,33.5,30.22,SE,143,0.9,1.1,86,0.00,,---,0.00,VWS V14.01,2013-02-23 03:42:00,
2013-02-22 22:47:00,36.7,33.0,30.22,SE,141,0.0,0.0,86,0.00,,---,0.00,VWS V14.01,2013-02-23 03:47:00,
2013-02-22 22:52:00,37.0,33.3,30.22,SE,141,0.0,0.0,86,0.00,,---,0.00,VWS V14.01,2013-02-23 03:52:00,
2013-02-22 22:57:00,36.9,33.1,30.21,SE,141,0.0,0.0,86,0.00,,---,0.00,VWS V14.01,2013-02-23 03:57:00,
2013-02-22 23:02:00,37.3,33.5,30.21,SE,141,0.0,0.0,86,0.00,,---,0.00,VWS V14.01,2013-02-23 04:02:00,
2013-02-22 23:07:00,37.0,33.2,30.21,SE,141,0.0,0.0,86,0.00,,---,0.00,VWS V14.01,2013-02-23 04:07:00,
2013-02-22 23:12:00,36.6,33.0,30.21,SE,141,0.0,0.0,87,45.30,,---,0.00,VWS V14.01,2013-02-23 04:12:00,
2013-02-22 23:17:00,36.5,32.8,30.20,SE,141,0.0,0.0,86,0.00,,---,0.00,VWS V14.01,2013-02-23 04:17:00,
2013-02-22 23:22:00,36.9,33.6,30.20,SE,141,0.0,0.0,88,0.00,,---,0.00,VWS V14.01,2013-02-23 04:22:00,
2013-02-22 23:27:00,36.3,32.9,30.20,SE,145,1.1,1.1,87,0.00,,---,0.00,VWS V14.01,2013-02-23 04:27:00,
2013-02-22 23:32:00,36.4,33.0,30.20,ESE,107,0.0,0.0,88,0.00,,---,0.00,VWS V14.01,2013-02-23 04:32:00,
2013-02-22 23:37:00,36.5,33.3,30.20,ESE,107,0.0,0.0,88,0.00,,---,0.00,VWS V14.01,2013-02-23 04:37:00,
2013-02-22 23:42:00,36.2,33.4,30.20,ESE,107,0.0,0.0,89,0.00,,---,0.00,VWS V14.01,2013-02-23 04:42:00,
2013-02-22 23:47:00,36.4,33.6,30.20,ESE,115,0.0,0.0,90,45.30,,---,0.00,VWS V14.01,2013-02-23 04:47:00,
2013-02-22 23:52:00,36.4,33.5,30.20,ESE,115,0.0,0.0,89,0.00,,---,0.00,VWS V14.01,2013-02-23 04:52:00,
2013-02-22 23:57:00,36.2,33.5,30.20,ESE,115,0.0,0.0,90,0.00,,---,0.00,VWS V14.01,2013-02-23 04:57:00,